sensor_id;sensor_type;location;lat;lon;timestamp;P1;durP1;ratioP1;P2;durP2;ratioP2
7306;SDS011;3694;48.732;9.248;2023-04-25T00:01:59;3.40;;;3.10;;
7306;SDS011;3694;48.732;9.248;2023-04-25T00:04:25;4.47;;;2.87;;
7306;SDS011;3694;48.732;9.248;2023-04-25T00:06:52;3.07;;;2.77;;
7306;SDS011;3694;48.732;9.248;2023-04-25T00:09:19;2.90;;;2.60;;
7306;SDS011;3694;48.732;9.248;2023-04-25T00:11:44;2.77;;;2.57;;
7306;SDS011;3694;48.732;9.248;2023-04-25T00:14:10;4.40;;;3.00;;
7306;SDS011;3694;48.732;9.248;2023-04-25T00:16:35;2.93;;;2.73;;
7306;SDS011;3694;48.732;9.248;2023-04-25T00:19:02;2.90;;;2.60;;
7306;SDS011;3694;48.732;9.248;2023-04-25T00:21:28;4.90;;;2.60;;
7306;SDS011;3694;48.732;9.248;2023-04-25T00:23:54;3.20;;;3.00;;
7306;SDS011;3694;48.732;9.248;2023-04-25T00:26:20;2.80;;;2.60;;
7306;SDS011;3694;48.732;9.248;2023-04-25T00:28:46;2.83;;;2.50;;
7306;SDS011;3694;48.732;9.248;2023-04-25T00:31:12;3.07;;;2.77;;
7306;SDS011;3694;48.732;9.248;2023-04-25T00:33:38;3.50;;;3.20;;
7306;SDS011;3694;48.732;9.248;2023-04-25T00:36:04;3.67;;;3.00;;
7306;SDS011;3694;48.732;9.248;2023-04-25T00:38:30;2.60;;;2.40;;
7306;SDS011;3694;48.732;9.248;2023-04-25T00:40:55;3.10;;;2.80;;
7306;SDS011;3694;48.732;9.248;2023-04-25T00:43:22;3.13;;;2.63;;
7306;SDS011;3694;48.732;9.248;2023-04-25T00:45:51;2.87;;;2.63;;
7306;SDS011;3694;48.732;9.248;2023-04-25T00:48:17;3.20;;;2.77;;
7306;SDS011;3694;48.732;9.248;2023-04-25T00:50:45;2.80;;;2.50;;
7306;SDS011;3694;48.732;9.248;2023-04-25T00:53:20;3.17;;;2.60;;
7306;SDS011;3694;48.732;9.248;2023-04-25T00:55:46;2.80;;;2.60;;
7306;SDS011;3694;48.732;9.248;2023-04-25T00:58:12;3.20;;;2.90;;
7306;SDS011;3694;48.732;9.248;2023-04-25T01:00:38;3.00;;;2.57;;
7306;SDS011;3694;48.732;9.248;2023-04-25T01:03:05;3.47;;;2.57;;
7306;SDS011;3694;48.732;9.248;2023-04-25T01:05:31;2.77;;;2.57;;
7306;SDS011;3694;48.732;9.248;2023-04-25T01:07:56;2.90;;;2.67;;
7306;SDS011;3694;48.732;9.248;2023-04-25T01:10:22;2.87;;;2.67;;
7306;SDS011;3694;48.732;9.248;2023-04-25T01:12:48;2.73;;;2.53;;
7306;SDS011;3694;48.732;9.248;2023-04-25T01:15:13;4.03;;;2.87;;
7306;SDS011;3694;48.732;9.248;2023-04-25T01:17:39;3.07;;;2.77;;
7306;SDS011;3694;48.732;9.248;2023-04-25T01:20:05;3.53;;;2.73;;
7306;SDS011;3694;48.732;9.248;2023-04-25T01:22:32;3.00;;;2.50;;
7306;SDS011;3694;48.732;9.248;2023-04-25T01:24:58;2.80;;;2.53;;
7306;SDS011;3694;48.732;9.248;2023-04-25T01:27:25;3.10;;;2.73;;
7306;SDS011;3694;48.732;9.248;2023-04-25T01:29:50;3.30;;;2.67;;
7306;SDS011;3694;48.732;9.248;2023-04-25T01:32:16;5.53;;;3.00;;
7306;SDS011;3694;48.732;9.248;2023-04-25T01:34:42;2.60;;;2.40;;
7306;SDS011;3694;48.732;9.248;2023-04-25T01:37:08;3.67;;;2.97;;
7306;SDS011;3694;48.732;9.248;2023-04-25T01:39:34;2.83;;;2.63;;
7306;SDS011;3694;48.732;9.248;2023-04-25T01:42:00;3.33;;;3.03;;
7306;SDS011;3694;48.732;9.248;2023-04-25T01:44:26;2.97;;;2.77;;
7306;SDS011;3694;48.732;9.248;2023-04-25T01:46:52;3.57;;;3.03;;
7306;SDS011;3694;48.732;9.248;2023-04-25T01:49:17;3.70;;;3.27;;
7306;SDS011;3694;48.732;9.248;2023-04-25T01:51:43;3.17;;;2.73;;
7306;SDS011;3694;48.732;9.248;2023-04-25T01:54:09;3.10;;;2.80;;
7306;SDS011;3694;48.732;9.248;2023-04-25T01:56:36;3.33;;;3.00;;
7306;SDS011;3694;48.732;9.248;2023-04-25T01:59:03;4.00;;;2.80;;
7306;SDS011;3694;48.732;9.248;2023-04-25T02:01:29;2.93;;;2.53;;
7306;SDS011;3694;48.732;9.248;2023-04-25T02:03:54;3.47;;;3.17;;
7306;SDS011;3694;48.732;9.248;2023-04-25T02:06:23;3.47;;;3.00;;
7306;SDS011;3694;48.732;9.248;2023-04-25T02:08:48;3.13;;;2.83;;
7306;SDS011;3694;48.732;9.248;2023-04-25T02:11:14;3.00;;;2.17;;
7306;SDS011;3694;48.732;9.248;2023-04-25T02:13:39;2.83;;;2.63;;
7306;SDS011;3694;48.732;9.248;2023-04-25T02:16:05;2.40;;;2.20;;
7306;SDS011;3694;48.732;9.248;2023-04-25T02:18:31;2.37;;;2.17;;
7306;SDS011;3694;48.732;9.248;2023-04-25T02:20:58;2.17;;;2.07;;
7306;SDS011;3694;48.732;9.248;2023-04-25T02:23:24;3.00;;;2.23;;
7306;SDS011;3694;48.732;9.248;2023-04-25T02:25:50;2.00;;;1.90;;
7306;SDS011;3694;48.732;9.248;2023-04-25T02:28:16;1.83;;;1.73;;
7306;SDS011;3694;48.732;9.248;2023-04-25T02:30:42;2.00;;;1.90;;
7306;SDS011;3694;48.732;9.248;2023-04-25T02:33:07;2.30;;;2.10;;
7306;SDS011;3694;48.732;9.248;2023-04-25T02:35:33;2.70;;;2.30;;
7306;SDS011;3694;48.732;9.248;2023-04-25T02:37:58;2.27;;;2.07;;
7306;SDS011;3694;48.732;9.248;2023-04-25T02:40:24;2.43;;;2.20;;
7306;SDS011;3694;48.732;9.248;2023-04-25T02:42:50;2.33;;;2.13;;
7306;SDS011;3694;48.732;9.248;2023-04-25T02:45:15;1.90;;;1.80;;
7306;SDS011;3694;48.732;9.248;2023-04-25T02:47:41;3.37;;;2.10;;
7306;SDS011;3694;48.732;9.248;2023-04-25T02:50:06;2.30;;;2.00;;
7306;SDS011;3694;48.732;9.248;2023-04-25T02:52:32;2.00;;;1.83;;
7306;SDS011;3694;48.732;9.248;2023-04-25T02:54:58;3.40;;;2.43;;
7306;SDS011;3694;48.732;9.248;2023-04-25T02:57:23;2.30;;;2.10;;
7306;SDS011;3694;48.732;9.248;2023-04-25T02:59:49;2.47;;;2.27;;
7306;SDS011;3694;48.732;9.248;2023-04-25T03:02:14;2.50;;;2.30;;
7306;SDS011;3694;48.732;9.248;2023-04-25T03:04:40;2.50;;;2.30;;
7306;SDS011;3694;48.732;9.248;2023-04-25T03:07:06;2.43;;;2.23;;
7306;SDS011;3694;48.732;9.248;2023-04-25T03:09:31;3.47;;;2.37;;
7306;SDS011;3694;48.732;9.248;2023-04-25T03:11:57;2.53;;;2.30;;
7306;SDS011;3694;48.732;9.248;2023-04-25T03:14:23;2.77;;;2.50;;
7306;SDS011;3694;48.732;9.248;2023-04-25T03:16:48;2.40;;;2.20;;
7306;SDS011;3694;48.732;9.248;2023-04-25T03:19:14;2.70;;;2.50;;
7306;SDS011;3694;48.732;9.248;2023-04-25T03:21:41;4.03;;;2.20;;
7306;SDS011;3694;48.732;9.248;2023-04-25T03:24:08;2.40;;;2.20;;
7306;SDS011;3694;48.732;9.248;2023-04-25T03:26:33;2.53;;;2.33;;
7306;SDS011;3694;48.732;9.248;2023-04-25T03:28:59;2.57;;;2.13;;
7306;SDS011;3694;48.732;9.248;2023-04-25T03:31:24;2.77;;;2.23;;
7306;SDS011;3694;48.732;9.248;2023-04-25T03:33:50;3.53;;;2.30;;
7306;SDS011;3694;48.732;9.248;2023-04-25T03:36:16;2.60;;;2.40;;
7306;SDS011;3694;48.732;9.248;2023-04-25T03:38:41;2.70;;;2.47;;
7306;SDS011;3694;48.732;9.248;2023-04-25T03:41:07;2.70;;;2.50;;
7306;SDS011;3694;48.732;9.248;2023-04-25T03:43:33;6.23;;;2.83;;
7306;SDS011;3694;48.732;9.248;2023-04-25T03:45:58;3.53;;;2.80;;
7306;SDS011;3694;48.732;9.248;2023-04-25T03:48:25;3.77;;;2.53;;
7306;SDS011;3694;48.732;9.248;2023-04-25T03:50:51;3.00;;;2.53;;
7306;SDS011;3694;48.732;9.248;2023-04-25T03:53:17;3.27;;;2.30;;
7306;SDS011;3694;48.732;9.248;2023-04-25T03:55:43;2.57;;;2.37;;
7306;SDS011;3694;48.732;9.248;2023-04-25T03:58:08;2.73;;;2.53;;
7306;SDS011;3694;48.732;9.248;2023-04-25T04:00:34;2.73;;;2.53;;
7306;SDS011;3694;48.732;9.248;2023-04-25T04:03:00;3.10;;;2.40;;
7306;SDS011;3694;48.732;9.248;2023-04-25T04:05:25;2.90;;;2.33;;
7306;SDS011;3694;48.732;9.248;2023-04-25T04:07:52;4.43;;;2.80;;
7306;SDS011;3694;48.732;9.248;2023-04-25T04:10:18;5.80;;;3.00;;
7306;SDS011;3694;48.732;9.248;2023-04-25T04:12:44;3.50;;;2.90;;
7306;SDS011;3694;48.732;9.248;2023-04-25T04:15:09;3.90;;;2.97;;
7306;SDS011;3694;48.732;9.248;2023-04-25T04:17:35;3.40;;;3.10;;
7306;SDS011;3694;48.732;9.248;2023-04-25T04:20:01;5.40;;;2.80;;
7306;SDS011;3694;48.732;9.248;2023-04-25T04:22:28;3.30;;;2.93;;
7306;SDS011;3694;48.732;9.248;2023-04-25T04:24:54;5.77;;;3.40;;
7306;SDS011;3694;48.732;9.248;2023-04-25T04:27:19;4.00;;;3.20;;
7306;SDS011;3694;48.732;9.248;2023-04-25T04:29:46;3.07;;;2.63;;
7306;SDS011;3694;48.732;9.248;2023-04-25T04:32:12;3.30;;;3.00;;
7306;SDS011;3694;48.732;9.248;2023-04-25T04:34:38;4.67;;;3.00;;
7306;SDS011;3694;48.732;9.248;2023-04-25T04:37:04;3.73;;;3.00;;
7306;SDS011;3694;48.732;9.248;2023-04-25T04:39:31;5.17;;;3.13;;
7306;SDS011;3694;48.732;9.248;2023-04-25T04:41:58;2.93;;;2.60;;
7306;SDS011;3694;48.732;9.248;2023-04-25T04:44:24;4.50;;;2.50;;
7306;SDS011;3694;48.732;9.248;2023-04-25T04:46:50;3.67;;;2.80;;
7306;SDS011;3694;48.732;9.248;2023-04-25T04:49:16;3.30;;;3.00;;
7306;SDS011;3694;48.732;9.248;2023-04-25T04:51:42;3.43;;;3.13;;
7306;SDS011;3694;48.732;9.248;2023-04-25T04:54:09;3.10;;;2.87;;
7306;SDS011;3694;48.732;9.248;2023-04-25T04:56:35;3.23;;;2.87;;
7306;SDS011;3694;48.732;9.248;2023-04-25T04:59:00;3.87;;;3.47;;
7306;SDS011;3694;48.732;9.248;2023-04-25T05:01:27;3.10;;;2.80;;
7306;SDS011;3694;48.732;9.248;2023-04-25T05:03:54;3.93;;;3.27;;
7306;SDS011;3694;48.732;9.248;2023-04-25T05:06:25;3.53;;;3.00;;
7306;SDS011;3694;48.732;9.248;2023-04-25T05:08:51;5.93;;;3.13;;
7306;SDS011;3694;48.732;9.248;2023-04-25T05:11:17;2.93;;;2.53;;
7306;SDS011;3694;48.732;9.248;2023-04-25T05:13:43;3.53;;;2.77;;
7306;SDS011;3694;48.732;9.248;2023-04-25T05:16:10;5.13;;;2.90;;
7306;SDS011;3694;48.732;9.248;2023-04-25T05:18:36;5.03;;;3.37;;
7306;SDS011;3694;48.732;9.248;2023-04-25T05:21:02;5.87;;;2.60;;
7306;SDS011;3694;48.732;9.248;2023-04-25T05:23:27;3.30;;;2.83;;
7306;SDS011;3694;48.732;9.248;2023-04-25T05:25:54;5.13;;;3.07;;
7306;SDS011;3694;48.732;9.248;2023-04-25T05:28:20;5.27;;;3.10;;
7306;SDS011;3694;48.732;9.248;2023-04-25T05:30:46;3.30;;;3.00;;
7306;SDS011;3694;48.732;9.248;2023-04-25T05:33:11;4.67;;;2.93;;
7306;SDS011;3694;48.732;9.248;2023-04-25T05:35:37;4.00;;;2.80;;
7306;SDS011;3694;48.732;9.248;2023-04-25T05:38:02;3.90;;;2.77;;
7306;SDS011;3694;48.732;9.248;2023-04-25T05:40:28;3.17;;;2.80;;
7306;SDS011;3694;48.732;9.248;2023-04-25T05:42:53;2.87;;;2.63;;
7306;SDS011;3694;48.732;9.248;2023-04-25T05:45:19;3.80;;;2.80;;
7306;SDS011;3694;48.732;9.248;2023-04-25T05:47:44;3.57;;;2.83;;
7306;SDS011;3694;48.732;9.248;2023-04-25T05:50:10;3.17;;;2.87;;
7306;SDS011;3694;48.732;9.248;2023-04-25T05:52:38;3.40;;;2.70;;
7306;SDS011;3694;48.732;9.248;2023-04-25T05:55:04;5.03;;;3.07;;
7306;SDS011;3694;48.732;9.248;2023-04-25T05:57:30;3.90;;;2.97;;
7306;SDS011;3694;48.732;9.248;2023-04-25T05:59:56;3.10;;;2.80;;
7306;SDS011;3694;48.732;9.248;2023-04-25T06:02:21;2.93;;;2.63;;
7306;SDS011;3694;48.732;9.248;2023-04-25T06:04:49;5.60;;;2.77;;
7306;SDS011;3694;48.732;9.248;2023-04-25T06:07:15;2.70;;;2.50;;
7306;SDS011;3694;48.732;9.248;2023-04-25T06:09:41;2.20;;;2.00;;
7306;SDS011;3694;48.732;9.248;2023-04-25T06:12:06;2.93;;;2.40;;
7306;SDS011;3694;48.732;9.248;2023-04-25T06:14:32;2.50;;;2.20;;
7306;SDS011;3694;48.732;9.248;2023-04-25T06:16:59;3.00;;;2.70;;
7306;SDS011;3694;48.732;9.248;2023-04-25T06:19:24;2.50;;;2.30;;
7306;SDS011;3694;48.732;9.248;2023-04-25T06:21:50;2.57;;;2.20;;
7306;SDS011;3694;48.732;9.248;2023-04-25T06:24:15;2.93;;;2.40;;
7306;SDS011;3694;48.732;9.248;2023-04-25T06:26:41;2.27;;;2.10;;
7306;SDS011;3694;48.732;9.248;2023-04-25T06:29:06;2.67;;;2.27;;
7306;SDS011;3694;48.732;9.248;2023-04-25T06:31:32;2.67;;;2.27;;
7306;SDS011;3694;48.732;9.248;2023-04-25T06:33:58;2.70;;;2.50;;
7306;SDS011;3694;48.732;9.248;2023-04-25T06:36:24;3.13;;;2.50;;
7306;SDS011;3694;48.732;9.248;2023-04-25T06:38:51;3.03;;;2.50;;
7306;SDS011;3694;48.732;9.248;2023-04-25T06:41:17;2.70;;;2.50;;
7306;SDS011;3694;48.732;9.248;2023-04-25T06:43:43;3.70;;;2.70;;
7306;SDS011;3694;48.732;9.248;2023-04-25T06:46:08;4.00;;;2.97;;
7306;SDS011;3694;48.732;9.248;2023-04-25T06:48:34;2.77;;;2.30;;
7306;SDS011;3694;48.732;9.248;2023-04-25T06:50:59;2.97;;;2.67;;
7306;SDS011;3694;48.732;9.248;2023-04-25T06:53:25;2.63;;;2.43;;
7306;SDS011;3694;48.732;9.248;2023-04-25T06:55:51;2.60;;;2.40;;
7306;SDS011;3694;48.732;9.248;2023-04-25T06:58:16;3.43;;;2.70;;
7306;SDS011;3694;48.732;9.248;2023-04-25T07:00:42;2.83;;;2.60;;
7306;SDS011;3694;48.732;9.248;2023-04-25T07:03:08;3.87;;;3.03;;
7306;SDS011;3694;48.732;9.248;2023-04-25T07:05:33;2.83;;;2.60;;
7306;SDS011;3694;48.732;9.248;2023-04-25T07:07:59;2.90;;;2.70;;
7306;SDS011;3694;48.732;9.248;2023-04-25T07:10:25;6.77;;;2.97;;
7306;SDS011;3694;48.732;9.248;2023-04-25T07:12:50;2.77;;;2.53;;
7306;SDS011;3694;48.732;9.248;2023-04-25T07:15:16;3.13;;;2.93;;
7306;SDS011;3694;48.732;9.248;2023-04-25T07:17:41;2.70;;;2.50;;
7306;SDS011;3694;48.732;9.248;2023-04-25T07:20:07;3.23;;;2.80;;
7306;SDS011;3694;48.732;9.248;2023-04-25T07:22:34;2.93;;;2.73;;
7306;SDS011;3694;48.732;9.248;2023-04-25T07:25:00;2.97;;;2.70;;
7306;SDS011;3694;48.732;9.248;2023-04-25T07:27:26;2.63;;;2.43;;
7306;SDS011;3694;48.732;9.248;2023-04-25T07:29:51;2.70;;;2.50;;
7306;SDS011;3694;48.732;9.248;2023-04-25T07:32:17;2.50;;;2.30;;
7306;SDS011;3694;48.732;9.248;2023-04-25T07:34:43;2.83;;;2.60;;
7306;SDS011;3694;48.732;9.248;2023-04-25T07:37:09;2.83;;;2.53;;
7306;SDS011;3694;48.732;9.248;2023-04-25T07:39:34;3.20;;;2.90;;
7306;SDS011;3694;48.732;9.248;2023-04-25T07:42:00;5.07;;;2.93;;
7306;SDS011;3694;48.732;9.248;2023-04-25T07:44:27;3.77;;;3.47;;
7306;SDS011;3694;48.732;9.248;2023-04-25T07:46:52;3.33;;;3.07;;
7306;SDS011;3694;48.732;9.248;2023-04-25T07:49:18;3.70;;;3.40;;
7306;SDS011;3694;48.732;9.248;2023-04-25T07:51:43;3.50;;;3.20;;
7306;SDS011;3694;48.732;9.248;2023-04-25T07:54:10;4.17;;;3.77;;
7306;SDS011;3694;48.732;9.248;2023-04-25T07:56:40;4.43;;;3.70;;
7306;SDS011;3694;48.732;9.248;2023-04-25T07:59:05;5.23;;;3.83;;
7306;SDS011;3694;48.732;9.248;2023-04-25T08:01:31;4.00;;;3.70;;
7306;SDS011;3694;48.732;9.248;2023-04-25T08:03:56;4.93;;;4.43;;
7306;SDS011;3694;48.732;9.248;2023-04-25T08:06:22;4.00;;;3.57;;
7306;SDS011;3694;48.732;9.248;2023-04-25T08:08:47;4.13;;;3.67;;
7306;SDS011;3694;48.732;9.248;2023-04-25T08:11:13;4.10;;;3.77;;
7306;SDS011;3694;48.732;9.248;2023-04-25T08:13:38;4.20;;;3.67;;
7306;SDS011;3694;48.732;9.248;2023-04-25T08:16:04;4.13;;;3.73;;
7306;SDS011;3694;48.732;9.248;2023-04-25T08:18:30;4.10;;;3.70;;
7306;SDS011;3694;48.732;9.248;2023-04-25T08:20:55;4.67;;;4.27;;
7306;SDS011;3694;48.732;9.248;2023-04-25T08:23:21;4.63;;;4.23;;
7306;SDS011;3694;48.732;9.248;2023-04-25T08:25:46;4.30;;;3.90;;
7306;SDS011;3694;48.732;9.248;2023-04-25T08:28:12;4.50;;;4.07;;
7306;SDS011;3694;48.732;9.248;2023-04-25T08:30:37;4.57;;;4.17;;
7306;SDS011;3694;48.732;9.248;2023-04-25T08:33:03;4.23;;;3.83;;
7306;SDS011;3694;48.732;9.248;2023-04-25T08:35:31;4.60;;;4.20;;
7306;SDS011;3694;48.732;9.248;2023-04-25T08:37:58;4.87;;;4.43;;
7306;SDS011;3694;48.732;9.248;2023-04-25T08:40:23;4.77;;;4.37;;
7306;SDS011;3694;48.732;9.248;2023-04-25T08:42:55;4.30;;;3.90;;
7306;SDS011;3694;48.732;9.248;2023-04-25T08:45:22;5.23;;;4.73;;
7306;SDS011;3694;48.732;9.248;2023-04-25T08:47:48;6.23;;;5.53;;
7306;SDS011;3694;48.732;9.248;2023-04-25T08:50:17;13.73;;;9.53;;
7306;SDS011;3694;48.732;9.248;2023-04-25T08:52:46;5.67;;;5.17;;
7306;SDS011;3694;48.732;9.248;2023-04-25T08:55:13;6.97;;;4.57;;
7306;SDS011;3694;48.732;9.248;2023-04-25T08:57:40;5.50;;;4.77;;
7306;SDS011;3694;48.732;9.248;2023-04-25T09:00:10;5.00;;;4.50;;
7306;SDS011;3694;48.732;9.248;2023-04-25T09:02:40;5.73;;;4.60;;
7306;SDS011;3694;48.732;9.248;2023-04-25T09:05:08;5.90;;;4.70;;
7306;SDS011;3694;48.732;9.248;2023-04-25T09:07:34;6.57;;;4.90;;
7306;SDS011;3694;48.732;9.248;2023-04-25T09:10:00;5.43;;;4.50;;
7306;SDS011;3694;48.732;9.248;2023-04-25T09:12:28;6.03;;;4.50;;
7306;SDS011;3694;48.732;9.248;2023-04-25T09:15:08;4.80;;;4.40;;
7306;SDS011;3694;48.732;9.248;2023-04-25T09:17:35;6.33;;;4.60;;
7306;SDS011;3694;48.732;9.248;2023-04-25T09:20:09;4.97;;;4.30;;
7306;SDS011;3694;48.732;9.248;2023-04-25T09:22:36;5.60;;;5.03;;
7306;SDS011;3694;48.732;9.248;2023-04-25T09:25:12;5.47;;;4.93;;
7306;SDS011;3694;48.732;9.248;2023-04-25T09:27:50;4.47;;;4.07;;
7306;SDS011;3694;48.732;9.248;2023-04-25T09:30:17;5.33;;;4.83;;
7306;SDS011;3694;48.732;9.248;2023-04-25T09:32:43;4.60;;;4.20;;
7306;SDS011;3694;48.732;9.248;2023-04-25T09:35:22;6.60;;;4.30;;
7306;SDS011;3694;48.732;9.248;2023-04-25T09:37:56;4.57;;;4.13;;
7306;SDS011;3694;48.732;9.248;2023-04-25T09:40:22;5.10;;;4.60;;
7306;SDS011;3694;48.732;9.248;2023-04-25T09:42:47;5.30;;;4.57;;
7306;SDS011;3694;48.732;9.248;2023-04-25T09:45:13;5.17;;;4.27;;
7306;SDS011;3694;48.732;9.248;2023-04-25T09:47:40;4.60;;;4.10;;
7306;SDS011;3694;48.732;9.248;2023-04-25T09:50:13;4.87;;;3.67;;
7306;SDS011;3694;48.732;9.248;2023-04-25T09:52:40;4.47;;;3.80;;
7306;SDS011;3694;48.732;9.248;2023-04-25T09:55:14;5.43;;;4.20;;
7306;SDS011;3694;48.732;9.248;2023-04-25T09:57:45;5.10;;;4.43;;
7306;SDS011;3694;48.732;9.248;2023-04-25T10:00:17;5.30;;;4.07;;
7306;SDS011;3694;48.732;9.248;2023-04-25T10:02:44;4.40;;;4.00;;
7306;SDS011;3694;48.732;9.248;2023-04-25T10:05:16;4.60;;;4.07;;
7306;SDS011;3694;48.732;9.248;2023-04-25T10:07:49;3.57;;;3.27;;
7306;SDS011;3694;48.732;9.248;2023-04-25T10:10:16;3.40;;;3.10;;
7306;SDS011;3694;48.732;9.248;2023-04-25T10:12:50;3.10;;;2.80;;
7306;SDS011;3694;48.732;9.248;2023-04-25T10:15:16;3.63;;;3.30;;
7306;SDS011;3694;48.732;9.248;2023-04-25T10:17:42;3.07;;;2.83;;
7306;SDS011;3694;48.732;9.248;2023-04-25T10:20:09;2.90;;;2.67;;
7306;SDS011;3694;48.732;9.248;2023-04-25T10:22:36;3.67;;;2.50;;
7306;SDS011;3694;48.732;9.248;2023-04-25T10:25:06;2.17;;;2.07;;
7306;SDS011;3694;48.732;9.248;2023-04-25T10:27:33;2.13;;;1.93;;
7306;SDS011;3694;48.732;9.248;2023-04-25T10:30:03;2.40;;;2.00;;
7306;SDS011;3694;48.732;9.248;2023-04-25T10:32:35;1.90;;;1.80;;
7306;SDS011;3694;48.732;9.248;2023-04-25T10:35:14;1.97;;;1.87;;
7306;SDS011;3694;48.732;9.248;2023-04-25T10:37:56;1.70;;;1.60;;
7306;SDS011;3694;48.732;9.248;2023-04-25T10:40:30;1.70;;;1.60;;
7306;SDS011;3694;48.732;9.248;2023-04-25T10:42:57;1.30;;;1.20;;
7306;SDS011;3694;48.732;9.248;2023-04-25T10:48:51;1.20;;;1.10;;
7306;SDS011;3694;48.732;9.248;2023-04-25T10:51:22;1.03;;;1.03;;
7306;SDS011;3694;48.732;9.248;2023-04-25T10:53:56;0.83;;;0.83;;
7306;SDS011;3694;48.732;9.248;2023-04-25T10:56:25;1.43;;;1.33;;
7306;SDS011;3694;48.732;9.248;2023-04-25T10:58:52;2.30;;;1.70;;
7306;SDS011;3694;48.732;9.248;2023-04-25T11:01:29;1.13;;;1.13;;
7306;SDS011;3694;48.732;9.248;2023-04-25T11:04:04;1.50;;;1.40;;
7306;SDS011;3694;48.732;9.248;2023-04-25T11:09:02;1.60;;;1.33;;
7306;SDS011;3694;48.732;9.248;2023-04-25T11:11:36;0.97;;;0.97;;
7306;SDS011;3694;48.732;9.248;2023-04-25T11:14:02;2.77;;;1.50;;
7306;SDS011;3694;48.732;9.248;2023-04-25T11:16:27;3.07;;;2.37;;
7306;SDS011;3694;48.732;9.248;2023-04-25T11:18:53;2.67;;;2.47;;
7306;SDS011;3694;48.732;9.248;2023-04-25T11:21:21;3.53;;;3.23;;
7306;SDS011;3694;48.732;9.248;2023-04-25T11:23:47;2.50;;;2.30;;
7306;SDS011;3694;48.732;9.248;2023-04-25T11:26:15;3.60;;;1.60;;
7306;SDS011;3694;48.732;9.248;2023-04-25T11:28:44;1.50;;;1.40;;
7306;SDS011;3694;48.732;9.248;2023-04-25T11:31:21;1.87;;;1.77;;
7306;SDS011;3694;48.732;9.248;2023-04-25T11:33:47;1.50;;;1.40;;
7306;SDS011;3694;48.732;9.248;2023-04-25T11:36:12;2.23;;;1.90;;
7306;SDS011;3694;48.732;9.248;2023-04-25T11:38:38;1.93;;;1.83;;
7306;SDS011;3694;48.732;9.248;2023-04-25T11:41:03;1.80;;;1.70;;
7306;SDS011;3694;48.732;9.248;2023-04-25T11:43:29;1.70;;;1.60;;
7306;SDS011;3694;48.732;9.248;2023-04-25T11:45:55;1.80;;;1.70;;
7306;SDS011;3694;48.732;9.248;2023-04-25T11:48:20;1.93;;;1.83;;
7306;SDS011;3694;48.732;9.248;2023-04-25T11:50:46;2.07;;;1.90;;
7306;SDS011;3694;48.732;9.248;2023-04-25T11:53:11;1.90;;;1.80;;
7306;SDS011;3694;48.732;9.248;2023-04-25T11:55:37;2.10;;;1.90;;
7306;SDS011;3694;48.732;9.248;2023-04-25T11:58:03;2.37;;;1.97;;
7306;SDS011;3694;48.732;9.248;2023-04-25T12:00:29;2.10;;;2.00;;
7306;SDS011;3694;48.732;9.248;2023-04-25T12:02:56;2.03;;;1.93;;
7306;SDS011;3694;48.732;9.248;2023-04-25T12:05:27;2.43;;;1.97;;
7306;SDS011;3694;48.732;9.248;2023-04-25T12:07:55;2.07;;;1.97;;
7306;SDS011;3694;48.732;9.248;2023-04-25T12:10:21;2.30;;;2.10;;
7306;SDS011;3694;48.732;9.248;2023-04-25T12:12:48;2.20;;;2.00;;
7306;SDS011;3694;48.732;9.248;2023-04-25T12:15:18;2.63;;;2.40;;
7306;SDS011;3694;48.732;9.248;2023-04-25T12:17:50;2.50;;;2.30;;
7306;SDS011;3694;48.732;9.248;2023-04-25T12:20:17;3.03;;;2.83;;
7306;SDS011;3694;48.732;9.248;2023-04-25T12:22:44;3.57;;;3.27;;
7306;SDS011;3694;48.732;9.248;2023-04-25T12:25:12;3.30;;;3.10;;
7306;SDS011;3694;48.732;9.248;2023-04-25T12:33:26;3.30;;;3.10;;
7306;SDS011;3694;48.732;9.248;2023-04-25T12:35:56;3.80;;;3.50;;
7306;SDS011;3694;48.732;9.248;2023-04-25T12:38:29;3.17;;;2.93;;
7306;SDS011;3694;48.732;9.248;2023-04-25T12:40:56;3.60;;;3.30;;
7306;SDS011;3694;48.732;9.248;2023-04-25T12:43:34;4.40;;;4.00;;
7306;SDS011;3694;48.732;9.248;2023-04-25T12:46:02;4.13;;;3.73;;
7306;SDS011;3694;48.732;9.248;2023-04-25T12:48:28;5.13;;;4.40;;
7306;SDS011;3694;48.732;9.248;2023-04-25T12:50:54;6.37;;;5.30;;
7306;SDS011;3694;48.732;9.248;2023-04-25T12:53:20;10.13;;;6.07;;
7306;SDS011;3694;48.732;9.248;2023-04-25T12:55:47;9.83;;;6.40;;
7306;SDS011;3694;48.732;9.248;2023-04-25T12:58:13;9.77;;;6.37;;
7306;SDS011;3694;48.732;9.248;2023-04-25T13:00:40;4.37;;;3.97;;
7306;SDS011;3694;48.732;9.248;2023-04-25T13:03:05;4.00;;;3.60;;
7306;SDS011;3694;48.732;9.248;2023-04-25T13:05:31;4.77;;;3.63;;
7306;SDS011;3694;48.732;9.248;2023-04-25T13:07:57;3.70;;;3.30;;
7306;SDS011;3694;48.732;9.248;2023-04-25T13:10:22;6.60;;;5.43;;
7306;SDS011;3694;48.732;9.248;2023-04-25T13:12:48;7.00;;;5.20;;
7306;SDS011;3694;48.732;9.248;2023-04-25T13:15:13;12.57;;;8.63;;
7306;SDS011;3694;48.732;9.248;2023-04-25T13:17:40;3.60;;;3.30;;
7306;SDS011;3694;48.732;9.248;2023-04-25T13:20:06;8.53;;;6.13;;
7306;SDS011;3694;48.732;9.248;2023-04-25T13:22:34;4.50;;;4.10;;
7306;SDS011;3694;48.732;9.248;2023-04-25T13:25:02;3.60;;;3.30;;
7306;SDS011;3694;48.732;9.248;2023-04-25T13:27:28;15.07;;;9.37;;
7306;SDS011;3694;48.732;9.248;2023-04-25T13:29:53;6.87;;;6.07;;
7306;SDS011;3694;48.732;9.248;2023-04-25T13:32:19;6.73;;;4.90;;
7306;SDS011;3694;48.732;9.248;2023-04-25T13:34:45;4.97;;;4.47;;
7306;SDS011;3694;48.732;9.248;2023-04-25T13:37:10;4.67;;;4.27;;
7306;SDS011;3694;48.732;9.248;2023-04-25T13:39:36;3.60;;;3.27;;
7306;SDS011;3694;48.732;9.248;2023-04-25T13:42:01;4.77;;;3.53;;
7306;SDS011;3694;48.732;9.248;2023-04-25T13:44:27;4.30;;;3.90;;
7306;SDS011;3694;48.732;9.248;2023-04-25T13:46:52;3.77;;;3.47;;
7306;SDS011;3694;48.732;9.248;2023-04-25T13:49:18;3.47;;;3.20;;
7306;SDS011;3694;48.732;9.248;2023-04-25T13:51:43;3.87;;;3.47;;
7306;SDS011;3694;48.732;9.248;2023-04-25T13:54:09;4.67;;;3.80;;
7306;SDS011;3694;48.732;9.248;2023-04-25T13:56:35;3.97;;;3.33;;
7306;SDS011;3694;48.732;9.248;2023-04-25T13:59:00;4.47;;;3.40;;
7306;SDS011;3694;48.732;9.248;2023-04-25T14:01:26;4.63;;;3.60;;
7306;SDS011;3694;48.732;9.248;2023-04-25T14:03:52;3.90;;;3.60;;
7306;SDS011;3694;48.732;9.248;2023-04-25T14:06:18;3.47;;;3.17;;
7306;SDS011;3694;48.732;9.248;2023-04-25T14:08:48;3.67;;;3.37;;
7306;SDS011;3694;48.732;9.248;2023-04-25T14:11:14;4.50;;;3.87;;
7306;SDS011;3694;48.732;9.248;2023-04-25T14:13:39;5.73;;;4.40;;
7306;SDS011;3694;48.732;9.248;2023-04-25T14:16:05;4.27;;;3.90;;
7306;SDS011;3694;48.732;9.248;2023-04-25T14:18:31;4.20;;;3.80;;
7306;SDS011;3694;48.732;9.248;2023-04-25T14:20:56;4.53;;;4.13;;
7306;SDS011;3694;48.732;9.248;2023-04-25T14:23:22;5.17;;;4.70;;
7306;SDS011;3694;48.732;9.248;2023-04-25T14:25:51;5.97;;;4.67;;
7306;SDS011;3694;48.732;9.248;2023-04-25T14:28:24;5.03;;;4.53;;
7306;SDS011;3694;48.732;9.248;2023-04-25T14:30:50;4.67;;;4.27;;
7306;SDS011;3694;48.732;9.248;2023-04-25T14:33:15;5.67;;;5.13;;
7306;SDS011;3694;48.732;9.248;2023-04-25T14:35:41;6.40;;;4.90;;
7306;SDS011;3694;48.732;9.248;2023-04-25T14:38:06;5.23;;;4.20;;
7306;SDS011;3694;48.732;9.248;2023-04-25T14:40:32;5.73;;;4.90;;
7306;SDS011;3694;48.732;9.248;2023-04-25T14:42:58;5.20;;;4.20;;
7306;SDS011;3694;48.732;9.248;2023-04-25T14:45:23;4.33;;;3.93;;
7306;SDS011;3694;48.732;9.248;2023-04-25T14:47:51;5.40;;;4.20;;
7306;SDS011;3694;48.732;9.248;2023-04-25T14:50:17;5.03;;;3.90;;
7306;SDS011;3694;48.732;9.248;2023-04-25T14:52:43;5.77;;;4.13;;
7306;SDS011;3694;48.732;9.248;2023-04-25T14:55:10;5.57;;;4.37;;
7306;SDS011;3694;48.732;9.248;2023-04-25T14:57:45;4.10;;;3.80;;
7306;SDS011;3694;48.732;9.248;2023-04-25T15:00:13;4.20;;;3.80;;
7306;SDS011;3694;48.732;9.248;2023-04-25T15:02:41;4.40;;;4.00;;
7306;SDS011;3694;48.732;9.248;2023-04-25T15:05:07;5.60;;;4.13;;
7306;SDS011;3694;48.732;9.248;2023-04-25T15:07:35;4.00;;;3.60;;
7306;SDS011;3694;48.732;9.248;2023-04-25T15:10:02;4.60;;;3.70;;
7306;SDS011;3694;48.732;9.248;2023-04-25T15:12:28;4.10;;;3.80;;
7306;SDS011;3694;48.732;9.248;2023-04-25T15:14:54;4.03;;;3.40;;
7306;SDS011;3694;48.732;9.248;2023-04-25T15:17:19;3.17;;;2.97;;
7306;SDS011;3694;48.732;9.248;2023-04-25T15:19:45;4.93;;;3.30;;
7306;SDS011;3694;48.732;9.248;2023-04-25T15:22:10;3.20;;;2.90;;
7306;SDS011;3694;48.732;9.248;2023-04-25T15:24:36;4.10;;;3.00;;